Time;durP1;ratioP1;P1;durP2;ratioP2;P2;SDS_P1;SDS_P2;PMS_P1;PMS_P2;Temp;Humidity;BMP_temperature;BMP_pressure;BME280_temperature;BME280_humidity;BME280_pressure;Samples;Min_cycle;Max_cycle;Signal;HPM_P1;HPM_P2
2022/06/19 00:01:50;;;;;;;9.18;3.10;;;;;;;19.15;67.68;100161.34;10334046;28;20098;-72
2022/06/19 00:06:51;;;;;;;9.43;3.15;;;;;;;19.35;67.78;100201.47;10334419;28;20038;-72
2022/06/19 00:11:55;;;;;;;7.53;2.75;;;;;;;19.21;68.33;100216.16;10334366;28;20058;-72
2022/06/19 00:16:56;;;;;;;11.13;3.30;;;;;;;18.77;68.62;100169.72;10334157;28;20084;-72
2022/06/19 00:21:56;;;;;;;5.25;2.88;;;;;;;18.14;69.08;100082.09;10333268;28;20100;-72
2022/06/19 00:26:58;;;;;;;11.48;3.22;;;;;;;18.93;69.71;100214.88;10334220;28;20049;-72
2022/06/19 00:31:58;;;;;;;6.95;2.70;;;;;;;18.16;70.10;100123.00;10332722;28;20065;-72
2022/06/19 00:37:01;;;;;;;7.90;2.70;;;;;;;18.73;70.89;100251.09;10332926;28;20046;-72
2022/06/19 00:42:01;;;;;;;22.20;4.47;;;;;;;18.68;71.52;100249.88;10333167;28;20097;-72
2022/06/19 00:47:22;;;;;;;23.67;3.75;;;;;;;18.80;74.53;100252.69;10333078;28;20104;-72
2022/06/19 00:52:32;;;;;;;68.00;8.73;;;;;;;18.56;72.14;100250.84;10332712;28;20045;-72
2022/06/19 00:57:37;;;;;;;27.40;4.88;;;;;;;18.66;72.67;100260.03;10332053;28;20425;-72
2022/06/19 01:02:41;;;;;;;55.00;7.30;;;;;;;18.59;72.61;100256.63;10332512;28;20509;-71
2022/06/19 01:07:44;;;;;;;10.55;3.05;;;;;;;18.54;72.26;100258.31;10332832;28;20042;-72
2022/06/19 01:12:46;;;;;;;210.20;14.45;;;;;;;18.67;71.86;100264.41;10330603;28;20144;-72
2022/06/19 01:17:50;;;;;;;124.65;10.82;;;;;;;17.82;72.24;100129.75;10331556;28;20053;-72
2022/06/19 01:23:17;;;;;;;7.93;3.65;;;;;;;18.80;73.70;100268.03;10330703;28;20035;-72
2022/06/19 01:33:45;;;;;;;62.50;7.32;;;;;;;18.57;72.34;100264.06;10331877;28;20070;-72
2022/06/19 01:38:50;;;;;;;64.07;6.93;;;;;;;18.57;73.38;100264.06;10331701;28;20077;-72
2022/06/19 01:43:51;;;;;;;14.60;3.65;;;;;;;17.96;72.70;100160.00;10331225;28;20048;-72
2022/06/19 01:48:52;;;;;;;8.38;3.35;;;;;;;17.82;73.10;100134.31;10331702;28;20138;-72
2022/06/19 01:54:17;;;;;;;7.93;3.47;;;;;;;18.11;74.30;100163.19;10340345;28;20042;-72
2022/06/19 01:59:20;;;;;;;11.57;3.45;;;;;;;18.79;73.12;100285.22;10346801;28;20069;-68
2022/06/19 02:04:23;;;;;;;11.93;3.33;;;;;;;18.61;73.60;100249.16;10343654;28;20030;-67
2022/06/19 02:09:24;;;;;;;56.13;6.15;;;;;;;18.98;73.29;100272.59;10331187;28;20049;-67
2022/06/19 02:14:25;;;;;;;19.10;4.15;;;;;;;18.35;73.52;100160.66;10331226;28;20058;-67
2022/06/19 02:19:27;;;;;;;44.70;5.45;;;;;;;19.01;73.77;100264.88;10331037;28;20136;-68
2022/06/19 02:24:29;;;;;;;38.20;5.30;;;;;;;19.13;74.17;100270.31;10330928;28;20039;-67
2022/06/19 02:29:29;;;;;;;19.63;3.75;;;;;;;19.26;73.86;100270.16;10312840;28;20050;-67
2022/06/19 02:34:40;;;;;;;8.43;3.47;;;;;;;19.31;75.62;100256.00;10330179;28;20038;-67
2022/06/19 02:39:45;;;;;;;10.50;3.72;;;;;;;19.05;74.18;100162.94;10316260;28;20072;-67
2022/06/19 02:44:57;;;;;;;29.60;4.57;;;;;;;19.89;75.11;100258.09;10337542;28;20402;-67
2022/06/19 02:49:57;;;;;;;10.45;3.95;;;;;;;19.65;73.99;100224.06;10338100;28;20148;-67
2022/06/19 02:54:58;;;;;;;5.88;3.40;;;;;;;19.97;73.58;100263.16;10336855;28;20184;-67
2022/06/19 02:59:59;;;;;;;37.60;4.90;;;;;;;20.35;72.28;100253.00;10336506;28;20054;-67
2022/06/19 03:05:04;;;;;;;23.38;4.60;;;;;;;19.94;70.93;100139.59;10336433;28;20041;-68
2022/06/19 03:10:05;;;;;;;9.20;3.10;;;;;;;22.44;65.98;100253.50;10336995;28;20066;-68
2022/06/19 03:15:07;;;;;;;11.90;2.78;;;;;;;24.03;60.90;100251.56;10336645;28;20449;-69
2022/06/19 03:20:12;;;;;;;6.90;2.90;;;;;;;25.32;57.02;100270.25;10336493;28;20058;-68
2022/06/19 03:25:14;;;;;;;7.15;2.58;;;;;;;26.50;54.66;100267.63;10336168;28;20038;-68
2022/06/19 03:30:17;;;;;;;24.75;3.40;;;;;;;26.66;52.21;100190.22;10335422;28;20042;-68
2022/06/19 03:35:18;;;;;;;7.80;2.20;;;;;;;27.40;50.25;100266.75;10335528;28;20038;-68
2022/06/19 03:40:19;;;;;;;8.32;3.22;;;;;;;28.11;49.88;100279.91;10335575;28;20065;-69
2022/06/19 03:45:20;;;;;;;5.68;2.40;;;;;;;28.46;48.38;100197.94;10341615;28;20462;-68
2022/06/19 03:50:21;;;;;;;7.70;2.50;;;;;;;29.92;46.58;100275.56;10366605;28;20049;-68
2022/06/19 03:55:22;;;;;;;5.32;1.88;;;;;;;31.16;42.65;100283.97;10353113;28;20633;-68
2022/06/19 04:00:23;;;;;;;6.65;1.85;;;;;;;32.05;38.31;100279.75;10346542;28;20126;-69
2022/06/19 04:05:23;;;;;;;5.82;1.50;;;;;;;31.74;35.48;100205.53;10345219;28;20080;-68
2022/06/19 04:10:24;;;;;;;14.20;2.33;;;;;;;32.76;36.89;100280.94;10335169;28;20072;-68
2022/06/19 04:15:25;;;;;;;11.60;1.95;;;;;;;33.44;33.58;100279.50;10326152;28;20064;-68
2022/06/19 04:20:26;;;;;;;4.22;1.45;;;;;;;32.99;32.77;100188.94;10333130;28;20459;-68
2022/06/19 04:25:28;;;;;;;8.85;2.00;;;;;;;33.65;32.22;100282.44;10316579;28;20039;-68
2022/06/19 04:30:28;;;;;;;12.40;1.83;;;;;;;32.97;31.33;100273.75;10333025;28;20413;-68
2022/06/19 04:35:29;;;;;;;13.38;1.85;;;;;;;32.31;30.33;100261.78;10332681;28;20057;-68
2022/06/19 04:40:30;;;;;;;6.45;1.55;;;;;;;32.17;29.13;100261.91;10333932;28;20050;-68
2022/06/19 04:45:33;;;;;;;21.40;2.25;;;;;;;32.05;28.85;100266.03;10333210;28;20082;-67
2022/06/19 04:50:33;;;;;;;;;;;;;;;32.56;28.03;100266.63;10333967;28;20402;-67
2022/06/19 04:55:34;;;;;;;14.05;1.88;;;;;;;31.50;29.23;100183.06;10332630;28;19928;-68
2022/06/19 05:00:35;;;;;;;8.50;1.40;;;;;;;31.22;28.42;100149.41;10331708;28;20044;-67
2022/06/19 05:05:36;;;;;;;3.58;1.45;;;;;;;31.49;29.12;100252.81;10331518;28;20506;-68
2022/06/19 05:10:37;;;;;;;7.70;1.42;;;;;;;31.59;28.27;100256.16;10332650;28;20117;-67
2022/06/19 05:15:37;;;;;;;4.43;1.40;;;;;;;31.57;27.84;100249.34;10332488;28;20506;-68
2022/06/19 05:20:38;;;;;;;3.58;1.38;;;;;;;31.06;28.42;100250.47;10332020;28;20890;-67
2022/06/19 05:25:39;;;;;;;4.90;1.40;;;;;;;30.71;28.63;100259.09;10331437;28;20034;-68
2022/06/19 05:30:40;;;;;;;11.65;1.73;;;;;;;30.62;29.17;100258.16;10331499;28;20042;-66
2022/06/19 05:35:41;;;;;;;7.00;2.08;;;;;;;30.71;28.43;100242.63;10331638;28;20038;-67
2022/06/19 05:40:42;;;;;;;3.92;1.60;;;;;;;30.56;28.08;100223.75;10332153;28;20042;-67
2022/06/19 05:45:50;;;;;;;4.65;1.55;;;;;;;30.71;27.28;100261.00;10331791;28;20050;-68
2022/06/19 05:51:02;;;;;;;10.35;1.98;;;;;;;30.91;26.83;100255.16;10334178;28;20085;-71
2022/06/19 05:56:04;;;;;;;5.55;1.50;;;;;;;30.20;28.17;100141.41;10314062;28;20153;-67
2022/06/19 06:01:06;;;;;;;11.38;2.45;;;;;;;30.72;27.89;100191.34;10331276;28;20034;-68
2022/06/19 06:06:11;;;;;;;10.23;2.13;;;;;;;30.82;27.83;100196.66;10331808;28;20081;-68
2022/06/19 06:11:13;;;;;;;4.25;2.00;;;;;;;31.35;27.20;100258.34;10300073;28;20069;-68
2022/06/19 06:16:16;;;;;;;20.65;2.65;;;;;;;31.61;27.47;100255.81;10334211;28;20046;-68
2022/06/19 06:21:20;;;;;;;13.48;2.50;;;;;;;31.77;27.02;100268.09;10337155;28;20101;-68
2022/06/19 06:26:24;;;;;;;6.53;1.73;;;;;;;31.97;25.93;100260.47;10338459;28;20121;-68
2022/06/19 06:31:26;;;;;;;6.50;2.03;;;;;;;32.20;26.42;100253.03;10334389;28;20053;-67
2022/06/19 06:36:29;;;;;;;13.60;2.17;;;;;;;32.22;26.06;100229.59;10370747;28;20413;-69
2022/06/19 06:41:30;;;;;;;5.38;1.92;;;;;;;31.89;25.92;100145.81;10337996;28;20038;-68
2022/06/19 06:46:30;;;;;;;10.95;3.42;;;;;;;32.25;26.32;100241.91;10337242;28;20481;-69
2022/06/19 06:51:32;;;;;;;11.30;2.35;;;;;;;32.29;25.77;100213.44;10337993;28;20184;-68
2022/06/19 06:56:35;;;;;;;3.75;2.05;;;;;;;31.11;25.67;100050.06;10337092;28;20057;-68
2022/06/19 07:01:36;;;;;;;16.20;2.83;;;;;;;31.89;26.05;100132.09;10335835;28;20042;-69
2022/06/19 07:06:36;;;;;;;6.13;2.30;;;;;;;32.62;25.60;100229.63;10335871;28;20042;-68
2022/06/19 07:11:40;;;;;;;6.47;2.05;;;;;;;32.50;25.61;100248.66;10337295;28;20498;-69
2022/06/19 07:16:41;;;;;;;19.80;2.90;;;;;;;32.35;25.96;100257.31;10335943;28;20088;-73
2022/06/19 07:21:41;;;;;;;6.63;2.35;;;;;;;32.50;25.85;100248.66;10342246;28;20501;-70
2022/06/19 07:26:42;;;;;;;18.77;2.65;;;;;;;32.46;26.29;100233.94;10368810;28;20038;-70
2022/06/19 07:31:43;;;;;;;6.38;2.25;;;;;;;32.67;25.31;100251.47;10359766;28;20098;-67
2022/06/19 07:36:44;;;;;;;5.50;2.15;;;;;;;32.54;24.99;100237.84;10371446;28;20038;-68
2022/06/19 07:41:44;;;;;;;8.52;2.42;;;;;;;31.36;24.69;100035.72;10371389;28;20038;-68
2022/06/19 07:52:05;;;;;;;6.35;2.10;;;;;;;32.44;24.87;100106.94;10367867;28;20041;-68
2022/06/19 07:57:06;;;;;;;8.82;2.72;;;;;;;33.45;24.76;100230.75;10370809;28;20096;-69
2022/06/19 08:02:06;;;;;;;9.52;2.67;;;;;;;33.53;24.91;100191.41;10371174;28;20038;-68
2022/06/19 08:07:11;;;;;;;7.38;2.33;;;;;;;33.41;24.06;100205.78;10360911;28;20046;-69
2022/06/19 08:12:12;;;;;;;5.50;2.60;;;;;;;32.65;23.53;100096.97;10360161;28;20062;-68
2022/06/19 08:17:13;;;;;;;8.00;2.70;;;;;;;33.22;24.61;100181.34;10347657;28;20054;-68
2022/06/19 08:22:14;;;;;;;22.27;2.85;;;;;;;33.60;25.03;100206.31;10369831;28;20053;-69
2022/06/19 08:27:15;;;;;;;13.73;2.80;;;;;;;33.51;24.29;100194.50;10369766;28;20034;-68
2022/06/19 08:32:16;;;;;;;12.43;3.00;;;;;;;33.10;25.32;100182.00;10364757;28;20548;-70
2022/06/19 08:37:16;;;;;;;9.73;2.67;;;;;;;33.41;25.02;100192.81;10352019;28;20034;-69
2022/06/19 08:42:40;;;;;;;9.85;2.50;;;;;;;33.40;25.02;100143.59;10367450;28;20040;-69
2022/06/19 08:47:47;;;;;;;6.85;2.58;;;;;;;33.46;24.05;100131.28;10365020;28;20037;-68
2022/06/19 08:53:08;;;;;;;12.38;2.35;;;;;;;34.12;23.62;100188.06;10368444;28;20069;-68
2022/06/19 08:58:36;;;;;;;10.77;2.55;;;;;;;34.08;24.48;100180.44;10366294;28;20046;-68
2022/06/19 09:09:57;;;;;;;5.72;2.28;;;;;;;33.46;24.01;100045.94;10332915;28;20042;-69
2022/06/19 09:15:17;;;;;;;20.23;3.97;;;;;;;34.22;24.39;100163.66;10329903;28;20144;-69
2022/06/19 09:20:35;;;;;;;6.80;2.50;;;;;;;34.34;23.83;100168.47;10364697;28;20046;-69
2022/06/19 09:26:00;;;;;;;3.35;2.10;;;;;;;33.59;23.86;100094.50;10356971;28;20050;-69
2022/06/19 09:31:29;;;;;;;7.93;2.75;;;;;;;33.98;23.60;100160.66;10329106;28;20073;-68
2022/06/19 09:36:56;;;;;;;12.82;3.10;;;;;;;33.25;23.55;100034.00;10336820;28;20493;-69
2022/06/19 09:42:12;;;;;;;7.72;2.35;;;;;;;34.20;23.95;100152.19;10365407;28;20037;-69
2022/06/19 09:47:22;;;;;;;22.88;3.65;;;;;;;34.18;23.33;100150.91;10364862;28;20042;-69
2022/06/19 09:52:52;;;;;;;4.65;2.30;;;;;;;33.56;22.88;100037.31;10364137;28;20624;-69
2022/06/19 09:58:02;;;;;;;11.82;2.28;;;;;;;34.20;23.37;100157.69;10374742;28;20096;-69
2022/06/19 10:03:12;;;;;;;4.53;2.17;;;;;;;34.25;22.77;100145.66;10372140;28;20099;-69
2022/06/19 10:08:25;;;;;;;7.30;1.92;;;;;;;34.41;23.41;100151.44;10374910;28;20073;-69
2022/06/19 10:13:49;;;;;;;8.00;3.13;;;;;;;34.41;24.34;100126.63;10352394;28;20058;-68
2022/06/19 10:18:56;;;;;;;6.25;2.40;;;;;;;34.80;22.92;100133.69;10338338;28;20050;-68
2022/06/19 10:24:06;;;;;;;3.92;2.38;;;;;;;34.78;22.63;100107.56;10338049;28;20506;-68
2022/06/19 10:29:10;;;;;;;6.07;2.63;;;;;;;34.83;22.07;100141.28;10357639;28;20033;-68
2022/06/19 10:34:23;;;;;;;6.25;2.00;;;;;;;34.54;23.68;100137.41;10365132;28;20054;-68
2022/06/19 10:39:55;;;;;;;22.73;2.75;;;;;;;34.79;22.71;100131.25;10337445;28;20099;-68
2022/06/19 10:45:20;;;;;;;10.40;2.20;;;;;;;35.14;22.71;100126.28;10337883;28;20568;-69
2022/06/19 10:50:36;;;;;;;9.50;2.50;;;;;;;35.20;22.62;100119.41;10337011;28;20034;-68
2022/06/19 10:56:15;;;;;;;10.77;2.40;;;;;;;34.51;22.84;100121.50;10326793;28;20042;-69
2022/06/19 11:06:55;;;;;;;5.60;2.15;;;;;;;33.86;23.62;100117.25;10333254;28;20050;-69
2022/06/19 11:12:13;;;;;;;9.50;2.10;;;;;;;32.60;24.06;100000.06;10336697;28;20092;-69
2022/06/19 11:17:27;;;;;;;10.10;2.20;;;;;;;32.84;23.27;100076.59;10336164;28;20523;-69
2022/06/19 11:22:41;;;;;;;11.00;2.33;;;;;;;32.93;24.04;100111.22;10336407;28;20043;-69
2022/06/19 11:42:33;;;;;;;9.75;2.25;;;;;;;34.05;23.40;100087.41;10573808;27;21004;-69
2022/06/19 11:47:40;;;;;;;7.97;1.90;;;;;;;34.14;22.37;100092.06;10574840;28;20047;-67
2022/06/19 11:52:50;;;;;;;6.25;1.58;;;;;;;33.48;23.30;99996.84;10574433;28;20047;-67
2022/06/19 11:57:55;;;;;;;10.02;2.00;;;;;;;34.36;22.84;100088.19;10573807;28;20081;-67
2022/06/19 12:02:59;;;;;;;14.32;2.65;;;;;;;33.63;23.09;100010.09;10573707;28;20031;-67
2022/06/19 12:08:07;;;;;;;7.78;1.98;;;;;;;33.48;23.47;99985.84;10573498;28;20036;-67
2022/06/19 12:13:21;;;;;;;5.25;1.90;;;;;;;34.09;23.02;100093.84;10572775;28;20036;-67
2022/06/19 12:18:22;;;;;;;8.35;1.80;;;;;;;34.01;23.12;100082.84;10572938;28;20031;-67
2022/06/19 12:23:27;;;;;;;5.47;2.00;;;;;;;33.86;22.36;100106.25;10573311;28;20044;-66
2022/06/19 12:28:37;;;;;;;5.70;3.70;;;;;;;33.34;22.69;99990.75;10571186;28;20525;-66
2022/06/19 12:33:46;;;;;;;5.75;3.08;;;;;;;33.96;23.46;100083.03;10571935;28;20040;-66
2022/06/19 12:38:50;;;;;;;5.93;1.70;;;;;;;33.41;22.62;99983.56;10572412;28;20074;-67
2022/06/19 12:44:00;;;;;;;7.35;2.20;;;;;;;33.83;22.45;100085.69;10571612;28;20139;-66
2022/06/19 12:49:46;;;;;;;7.15;1.95;;;;;;;34.03;22.40;100059.34;10569774;28;20459;-66
2022/06/19 12:55:20;;;;;;;20.95;3.03;;;;;;;34.72;23.23;100076.59;10543757;28;20040;-66
2022/06/19 13:00:36;;;;;;;9.18;1.50;;;;;;;34.85;22.36;100074.72;10540647;28;20139;-67
2022/06/19 13:06:10;;;;;;;20.05;2.92;;;;;;;34.42;22.07;100092.38;10543144;28;20040;-67
2022/06/19 13:11:24;;;;;;;9.10;1.75;;;;;;;34.25;22.58;100049.16;10486576;28;20132;-67
2022/06/19 13:16:44;;;;;;;8.18;1.60;;;;;;;33.50;22.84;99960.69;10475417;28;20524;-67
2022/06/19 13:22:11;;;;;;;13.85;1.70;;;;;;;33.96;22.96;100067.31;10458718;28;20051;-67
2022/06/19 13:27:54;;;;;;;18.58;2.30;;;;;;;33.83;23.64;100066.41;10466129;28;20044;-67
2022/06/19 13:33:31;;;;;;;5.55;1.73;;;;;;;33.68;24.37;100064.19;10494057;28;20059;-68
2022/06/19 13:39:02;;;;;;;7.55;1.90;;;;;;;33.49;24.14;100041.72;10495668;28;20094;-66
2022/06/19 13:44:22;;;;;;;7.35;1.95;;;;;;;33.31;23.86;100029.94;10493554;28;20123;-66
2022/06/19 13:49:50;;;;;;;9.45;2.00;;;;;;;33.60;23.64;100048.50;10493773;28;20044;-67
2022/06/19 13:55:10;;;;;;;19.70;2.35;;;;;;;33.76;23.88;100026.72;10491616;28;20449;-68
2022/06/19 14:00:27;;;;;;;8.15;2.63;;;;;;;34.28;25.31;100040.22;10491623;28;20032;-67
2022/06/19 14:05:39;;;;;;;18.33;2.95;;;;;;;34.58;22.57;100042.97;10491614;28;20043;-67
2022/06/19 14:10:42;;;;;;;5.28;1.60;;;;;;;34.04;22.90;100027.09;10492650;28;20127;-67
2022/06/19 14:16:03;;;;;;;5.22;1.83;;;;;;;33.76;23.12;100032.22;10487607;28;20040;-69
2022/06/19 14:21:27;;;;;;;4.10;2.08;;;;;;;33.49;23.83;100020.47;10489939;28;20051;-68
2022/06/19 14:26:45;;;;;;;6.45;1.90;;;;;;;33.27;22.70;100037.25;10488703;28;20042;-68
2022/06/19 14:31:47;;;;;;;11.68;2.10;;;;;;;32.72;23.27;100014.78;10492399;28;20048;-68
2022/06/19 14:36:48;;;;;;;22.50;2.60;;;;;;;32.49;23.78;99999.59;10490888;28;20093;-68
2022/06/19 14:42:02;;;;;;;6.40;2.13;;;;;;;32.47;23.40;100007.34;10479200;28;20333;-68
2022/06/19 14:47:32;;;;;;;13.32;2.45;;;;;;;32.91;22.90;100050.22;10455241;28;20041;-68
2022/06/19 14:52:52;;;;;;;3.95;1.50;;;;;;;33.28;22.87;100053.41;10471955;28;20526;-70
2022/06/19 14:57:58;;;;;;;22.30;2.55;;;;;;;33.28;21.93;100055.38;10494239;28;20028;-70
2022/06/19 15:03:06;;;;;;;25.98;2.45;;;;;;;32.42;22.68;99988.22;10490998;28;20040;-69
2022/06/19 15:08:13;;;;;;;46.63;4.13;;;;;;;32.68;22.66;100060.56;10483855;28;20052;-68
2022/06/19 15:13:20;;;;;;;11.32;1.55;;;;;;;32.67;21.98;100069.16;10490901;28;20456;-69
2022/06/19 15:18:26;;;;;;;7.22;1.58;;;;;;;32.58;22.46;100055.41;10454591;28;20044;-68
2022/06/19 15:23:28;;;;;;;15.57;1.80;;;;;;;32.54;22.67;100059.91;10454472;28;20041;-70
2022/06/19 15:28:38;;;;;;;2.90;1.90;;;;;;;32.49;22.44;100060.88;10479030;28;20455;-69
2022/06/19 15:33:46;;;;;;;7.65;1.75;;;;;;;32.32;22.57;100066.31;10495541;28;20500;-70
2022/06/19 15:38:59;;;;;;;8.95;1.92;;;;;;;32.17;22.55;100058.53;10495265;28;20048;-68
2022/06/19 15:44:00;;;;;;;31.13;2.92;;;;;;;32.02;22.94;100068.84;10494633;28;20063;-68
2022/06/19 15:49:01;;;;;;;15.02;2.20;;;;;;;31.70;22.92;100023.28;10495219;28;20956;-68
2022/06/19 15:54:16;;;;;;;25.30;2.97;;;;;;;31.70;23.26;100072.72;10494400;28;20119;-68
2022/06/19 15:59:23;;;;;;;21.65;2.47;;;;;;;31.42;23.36;100050.13;10494317;28;20045;-70
2022/06/19 16:04:46;;;;;;;8.35;1.58;;;;;;;31.27;23.71;100072.44;10495243;28;20037;-68
2022/06/19 16:09:53;;;;;;;7.57;1.92;;;;;;;30.80;24.10;100028.88;10490063;28;20519;-69
2022/06/19 16:15:23;;;;;;;35.92;3.10;;;;;;;30.83;24.16;100066.63;10493140;28;20040;-68
2022/06/19 16:20:27;;;;;;;33.30;3.10;;;;;;;30.51;25.19;100064.84;10493452;28;20036;-68
2022/06/19 16:25:41;;;;;;;13.25;2.45;;;;;;;30.28;24.66;100055.78;10497273;28;20047;-68
2022/06/19 16:30:48;;;;;;;27.38;2.97;;;;;;;29.86;25.04;100024.84;10502887;28;20101;-68
2022/06/19 16:46:49;;;;;;;13.82;2.85;;;;;;;29.00;26.55;100044.38;10492152;28;20045;-68
2022/06/19 16:51:53;;;;;;;16.92;2.53;;;;;;;28.88;26.41;100063.16;10472921;28;20044;-69
2022/06/19 16:56:54;;;;;;;16.15;1.88;;;;;;;27.84;26.57;99930.19;10459666;28;20037;-68
2022/06/19 17:01:59;;;;;;;9.93;1.90;;;;;;;28.56;26.51;100072.91;10475275;28;20075;-72
2022/06/19 17:07:02;;;;;;;82.65;6.50;;;;;;;27.67;27.66;99983.31;10493732;28;20066;-72
2022/06/19 17:12:11;;;;;;;29.75;3.65;;;;;;;28.04;28.12;100092.94;10491556;28;20047;-72
2022/06/19 17:17:27;;;;;;;72.35;6.65;;;;;;;27.87;29.14;100104.31;10492636;28;20120;-73
2022/06/19 17:22:40;;;;;;;84.40;9.35;;;;;;;27.62;28.74;100114.34;10495398;28;20049;-73
2022/06/19 17:27:53;;;;;;;84.60;7.30;;;;;;;27.39;29.32;100142.38;10492092;28;20040;-72
2022/06/19 17:32:55;;;;;;;43.63;4.40;;;;;;;27.16;28.42;100114.72;10492567;28;20040;-71
2022/06/19 17:37:57;;;;;;;58.28;5.57;;;;;;;27.21;29.03;100124.78;10491794;28;20495;-72
2022/06/19 17:43:05;;;;;;;39.97;4.43;;;;;;;26.92;28.91;100097.41;10496604;28;20036;-72
2022/06/19 17:48:06;;;;;;;43.25;4.50;;;;;;;26.57;29.16;100063.84;10499743;28;20574;-72
2022/06/19 17:53:31;;;;;;;50.08;4.55;;;;;;;26.97;29.53;100163.63;10499415;28;20135;-72
2022/06/19 17:58:32;;;;;;;61.00;5.35;;;;;;;25.84;30.47;100020.81;10490342;28;20029;-72
2022/06/19 18:03:36;;;;;;;39.30;4.63;;;;;;;25.78;30.35;100052.66;10468087;28;20045;-72
2022/06/19 18:08:40;;;;;;;34.70;3.70;;;;;;;26.37;30.51;100181.81;10479508;28;20144;-72
2022/06/19 18:13:54;;;;;;;67.15;4.80;;;;;;;26.27;30.55;100195.47;10499759;28;20044;-72
2022/06/19 18:18:57;;;;;;;37.63;4.18;;;;;;;25.97;31.20;100202.59;10492115;28;20555;-72
2022/06/19 18:24:08;;;;;;;57.40;4.70;;;;;;;25.18;31.42;100084.25;10492875;28;20029;-72
2022/06/19 18:29:17;;;;;;;20.27;3.63;;;;;;;25.78;31.14;100196.84;10492732;28;20390;-71
2022/06/19 18:34:17;;;;;;;30.70;4.53;;;;;;;25.61;31.65;100202.56;10490997;28;20407;-72
2022/06/19 18:39:28;;;;;;;38.88;3.20;;;;;;;25.49;32.00;100221.88;10497798;28;20143;-72
2022/06/19 18:44:29;;;;;;;32.80;2.92;;;;;;;25.19;31.79;100200.06;10486597;28;20147;-72
2022/06/19 18:49:48;;;;;;;60.22;4.50;;;;;;;25.24;32.21;100216.38;10479482;28;20144;-72
2022/06/19 18:54:49;;;;;;;29.63;2.50;;;;;;;24.52;32.11;100125.66;10481503;28;20037;-72
2022/06/19 18:59:51;;;;;;;20.45;2.67;;;;;;;24.86;32.19;100191.25;10455581;28;20043;-71
2022/06/19 19:04:52;;;;;;;34.83;3.10;;;;;;;24.95;32.15;100224.97;10454843;28;20044;-72
2022/06/19 19:10:01;;;;;;;21.92;2.83;;;;;;;24.83;33.41;100230.63;10454788;28;20508;-72
2022/06/19 19:15:06;;;;;;;23.20;2.42;;;;;;;24.63;33.76;100208.81;10453296;28;20523;-72
2022/06/19 19:20:22;;;;;;;14.30;1.90;;;;;;;24.69;34.27;100231.38;10455224;28;20044;-72
2022/06/19 19:25:28;;;;;;;9.40;1.80;;;;;;;24.45;34.52;100211.97;10454742;28;20044;-72
2022/06/19 19:30:32;;;;;;;8.57;1.77;;;;;;;24.47;34.19;100226.09;10454513;28;20040;-72
2022/06/19 19:35:39;;;;;;;13.63;1.75;;;;;;;24.34;34.35;100227.34;10469199;28;20499;-72
2022/06/19 19:40:42;;;;;;;13.43;1.83;;;;;;;23.68;34.19;100140.84;10494637;28;20087;-72
2022/06/19 19:45:45;;;;;;;9.15;2.65;;;;;;;24.17;35.30;100249.22;10495394;28;20408;-72
2022/06/19 19:50:47;;;;;;;17.35;2.30;;;;;;;24.05;35.29;100249.41;10495783;28;20083;-72
2022/06/19 19:55:48;;;;;;;15.38;3.92;;;;;;;23.79;35.74;100248.38;10496589;28;20142;-72
2022/06/19 20:00:50;;;;;;;11.00;2.53;;;;;;;23.77;36.17;100260.56;10497705;28;20051;-72
2022/06/19 20:11:14;;;;;;;9.35;1.67;;;;;;;23.69;36.90;100261.78;10503348;28;20099;-72
2022/06/19 20:16:15;;;;;;;7.45;1.80;;;;;;;23.00;37.01;100163.00;10502304;28;20127;-72
2022/06/19 20:21:40;;;;;;;6.88;1.48;;;;;;;23.42;37.49;100291.63;10503238;28;20043;-72
2022/06/19 20:26:46;;;;;;;8.25;1.50;;;;;;;23.27;38.23;100302.28;10497101;28;20056;-72
2022/06/19 20:31:49;;;;;;;6.18;1.50;;;;;;;22.20;39.20;100175.25;10501497;28;20518;-72
2022/06/19 20:36:51;;;;;;;8.07;1.92;;;;;;;22.09;39.80;100192.34;10501525;28;20075;-72
2022/06/19 20:47:18;;;;;;;14.75;2.88;;;;;;;22.35;41.72;100296.41;10501521;28;20056;-72
2022/06/19 20:52:22;;;;;;;9.43;2.50;;;;;;;22.14;42.90;100303.34;10501869;28;20044;-72
2022/06/19 20:57:24;;;;;;;6.50;2.13;;;;;;;21.28;43.04;100179.09;10502427;28;20044;-72
2022/06/19 21:02:24;;;;;;;7.50;2.35;;;;;;;21.91;43.62;100289.97;10501562;28;20044;-72
2022/06/19 21:07:28;;;;;;;9.18;1.83;;;;;;;21.75;44.24;100305.94;10501251;28;20407;-72
2022/06/19 21:12:29;;;;;;;10.88;2.92;;;;;;;20.80;44.23;100169.53;10500032;28;20139;-72
2022/06/19 21:17:29;;;;;;;9.23;2.00;;;;;;;21.23;45.34;100254.63;10501041;28;20692;-72
2022/06/19 21:22:36;;;;;;;10.93;2.10;;;;;;;21.26;46.45;100281.16;10500275;28;20048;-72
2022/06/19 21:27:37;;;;;;;8.73;2.38;;;;;;;21.17;46.21;100280.72;10498992;28;20040;-72
2022/06/19 21:32:39;;;;;;;9.88;2.30;;;;;;;19.82;46.20;100098.34;10500784;28;20036;-73
2022/06/19 21:37:45;;;;;;;5.65;2.67;;;;;;;20.61;48.37;100278.69;10500191;28;20041;-72
2022/06/19 21:42:45;;;;;;;10.57;2.50;;;;;;;19.99;48.26;100174.78;10499471;28;20098;-72
2022/06/19 21:47:47;;;;;;;16.27;3.13;;;;;;;19.97;48.58;100176.88;10499191;28;20581;-72
2022/06/19 21:52:50;;;;;;;9.02;2.10;;;;;;;19.09;48.73;100057.25;10499875;28;20041;-72
2022/06/19 21:57:53;;;;;;;10.55;2.20;;;;;;;20.26;49.17;100266.84;10500446;28;20071;-72
2022/06/19 22:02:55;;;;;;;10.10;2.60;;;;;;;20.26;49.21;100287.59;10498629;28;20040;-72
2022/06/19 22:08:03;;;;;;;10.40;2.33;;;;;;;19.35;51.87;100184.47;10497778;28;20036;-72
2022/06/19 22:13:04;;;;;;;9.98;2.38;;;;;;;19.97;50.93;100286.59;10498563;28;20086;-72
2022/06/19 22:18:07;;;;;;;11.45;2.30;;;;;;;19.58;51.89;100240.31;10498860;28;20044;-72
2022/06/19 22:23:10;;;;;;;10.52;2.28;;;;;;;18.97;51.51;100139.88;10496083;28;20090;-72
2022/06/19 22:28:17;;;;;;;8.02;2.42;;;;;;;19.70;53.57;100272.72;10492241;28;20040;-72
2022/06/19 22:33:22;;;;;;;11.20;2.67;;;;;;;19.72;54.10;100292.19;10490422;28;20051;-72
2022/06/19 22:38:23;;;;;;;10.70;2.40;;;;;;;18.86;53.52;100170.22;10498365;28;20063;-72
2022/06/19 22:43:24;;;;;;;9.93;2.50;;;;;;;18.93;53.74;100193.34;10497449;28;20086;-72
2022/06/19 22:48:25;;;;;;;8.15;2.47;;;;;;;19.57;54.46;100301.47;10484562;28;20112;-72
2022/06/19 22:53:26;;;;;;;14.82;2.80;;;;;;;19.25;54.54;100273.09;10465618;28;20191;-72
2022/06/19 23:03:46;;;;;;;6.43;1.80;;;;;;;18.84;55.34;100253.06;10496942;28;20047;-72
2022/06/19 23:08:47;;;;;;;9.32;2.45;;;;;;;19.07;55.91;100290.91;10495120;28;20045;-73
2022/06/19 23:13:48;;;;;;;6.30;2.08;;;;;;;18.78;56.27;100272.78;10455491;28;20484;-72
2022/06/19 23:18:49;;;;;;;8.55;2.00;;;;;;;18.13;57.21;100174.53;10454969;28;20495;-72
2022/06/19 23:23:50;;;;;;;6.43;2.03;;;;;;;18.76;57.59;100291.88;10454266;28;20118;-72
2022/06/19 23:28:52;;;;;;;7.82;2.20;;;;;;;18.61;58.50;100286.81;10454022;28;20047;-72
2022/06/19 23:33:53;;;;;;;8.57;2.40;;;;;;;17.90;58.60;100172.47;10455039;28;20072;-72
2022/06/19 23:39:00;;;;;;;13.48;2.20;;;;;;;17.68;60.15;100150.50;10455460;28;20138;-72
2022/06/19 23:44:01;;;;;;;14.13;2.47;;;;;;;18.25;59.53;100250.75;10453737;28;20377;-72
2022/06/19 23:49:01;;;;;;;10.35;2.45;;;;;;;18.29;60.16;100283.38;10453627;28;20049;-72
2022/06/19 23:54:02;;;;;;;7.90;2.53;;;;;;;17.62;60.16;100159.44;10453701;28;20040;-72
2022/06/19 23:59:04;;;;;;;7.72;2.20;;;;;;;18.19;60.24;100270.44;10454291;28;20128;-72
